Trenton, New Jersey
Current Conditions -  °F | °C
As of 8:53 AM on Thursday 29 Jan 2015 (Local Time) from KTTN Reporting Station
Clear Clear  
Wind Chill: 20°   Ceiling: Unl
Heat Index: 20°   Visibility: 10mi
Dew Point:   Wind: 0mph
Humidity: 48%   Direction: NA
Pressure: 30.32"   Gusts: NA
Location:  40.22°N, 74.76°W
Report Text: KTTN 291353Z 00000KT 10SM CLR M07/M16 A3032 RMK AO2 SLP264 T10671161
Loading
Personal Weather Stations






























Interactive Weather Map New forecast layout! Learn more

10-Day Weather Forecast

Advertisements
Track Severe Weather on mobile